Terminal Aerodrome Forecast
Issued by NWS Bismarck, ND

Home | Current Version | Previous Version | Text Only | Print | Product List | Glossary Off
Versions: 1 2 3 4 5 6 7 8 9 10 11 12 13 14 15 16 17 18 19 20 21 22

000
FTUS43 KBIS 280500
TAFBIS
TAF
KBIS 280533Z 2806/2906 31017G23KT P6SM -RASN BKN013 OVC025
      TEMPO 2806/2810 5SM -RASN BR BKN008 OVC013
     FM281000 31015G21KT 6SM BR VCSH BKN008 OVC012
     FM281600 31016G25KT P6SM OVC025
     FM282100 31013KT P6SM SCT025 BKN035
     FM290300 30005KT P6SM BKN035=

USA.gov is the U.S. government's official web portal to all federal, state and local government web resources and services.